createdAt,value
2019-04-20T00:04:32.431Z,9.00
2019-04-20T00:11:23.418Z,9.00
2019-04-20T00:18:04.661Z,9.00
2019-04-20T00:25:04.287Z,8.90
2019-04-20T00:31:56.648Z,8.90
2019-04-20T00:38:35.198Z,8.70
2019-04-20T00:45:26.789Z,8.70
2019-04-20T00:59:08.339Z,8.40
2019-04-20T01:06:02.249Z,8.20
2019-04-20T01:12:32.882Z,8.10
2019-04-20T01:19:15.879Z,8.20
2019-04-20T01:26:08.639Z,8.10
2019-04-20T01:33:06.159Z,8.00
2019-04-20T01:39:43.217Z,7.90
2019-04-20T01:46:26.319Z,7.70
2019-04-20T01:53:21.485Z,7.60
2019-04-20T02:00:13.215Z,7.60
2019-04-20T02:07:06.697Z,7.50
2019-04-20T02:13:56.350Z,7.50
2019-04-20T02:20:54.457Z,7.50
2019-04-20T02:27:31.030Z,7.40
2019-04-20T02:34:47.715Z,7.30
2019-04-20T02:41:35.991Z,7.20
2019-04-20T02:48:13.954Z,7.10
2019-04-20T03:01:43.620Z,7.00
2019-04-20T03:08:22.258Z,6.90
2019-04-20T03:15:09.684Z,6.70
2019-04-20T03:22:05.069Z,6.70
2019-04-20T03:29:00.214Z,6.60
2019-04-20T03:35:59.429Z,6.60
2019-04-20T03:42:14.322Z,6.50
2019-04-20T03:49:20.279Z,6.50
2019-04-20T03:56:03.831Z,6.40
2019-04-20T04:03:08.051Z,6.40
2019-04-20T04:09:33.158Z,6.30
2019-04-20T04:16:13.374Z,6.20
2019-04-20T04:23:11.595Z,6.20
2019-04-20T04:30:01.706Z,6.20
2019-04-20T04:36:49.928Z,6.20
2019-04-20T04:43:38.985Z,6.30
2019-04-20T04:50:09.537Z,6.50
2019-04-20T04:56:50.398Z,6.60
2019-04-20T05:03:54.158Z,6.70
2019-04-20T05:10:22.571Z,6.90
2019-04-20T05:17:32.887Z,6.90
2019-04-20T05:24:26.946Z,7.10
2019-04-20T05:31:03.067Z,7.20
2019-04-20T05:38:15.927Z,7.40
2019-04-20T05:44:55.695Z,8.10
2019-04-20T05:51:40.709Z,11.70
2019-04-20T05:58:26.101Z,13.60
2019-04-20T06:05:16.047Z,14.30
2019-04-20T06:12:14.434Z,22.70
2019-04-20T06:19:06.593Z,29.30
2019-04-20T06:26:06.194Z,32.40
2019-04-20T06:33:24.531Z,34.70
2019-04-20T06:40:22.591Z,35.50
2019-04-20T06:53:45.022Z,36.40
2019-04-20T07:00:15.610Z,37.80
2019-04-20T07:07:14.623Z,38.40
2019-04-20T07:13:47.241Z,38.70
2019-04-20T07:21:07.178Z,38.80
2019-04-20T07:27:56.466Z,39.00
2019-04-20T07:34:45.570Z,37.20
2019-04-20T07:41:32.981Z,36.90
2019-04-20T07:55:19.260Z,38.80
2019-04-20T08:01:52.695Z,40.80
2019-04-20T08:08:28.258Z,40.50
2019-04-20T08:22:08.941Z,41.50
2019-04-20T08:28:54.574Z,41.40
2019-04-20T08:35:58.456Z,36.90
2019-04-20T08:42:49.971Z,37.90
2019-04-20T08:49:29.679Z,38.70
2019-04-20T08:56:03.309Z,39.20
2019-04-20T09:02:41.205Z,38.90
2019-04-20T09:10:04.933Z,39.60
2019-04-20T09:16:13.159Z,40.10
2019-04-20T09:23:16.640Z,40.00
2019-04-20T09:30:04.558Z,42.70
2019-04-20T09:36:46.791Z,39.80
2019-04-20T09:43:26.198Z,40.00
2019-04-20T09:50:27.865Z,40.70
2019-04-20T09:57:22.960Z,39.10
2019-04-20T10:03:45.167Z,40.00
2019-04-20T10:10:38.049Z,39.30
2019-04-20T10:17:17.923Z,39.30
2019-04-20T10:24:03.080Z,39.70
2019-04-20T10:30:48.408Z,38.10
2019-04-20T10:37:35.473Z,37.30
2019-04-20T10:44:20.945Z,34.40
2019-04-20T10:51:08.230Z,33.00
2019-04-20T10:57:53.382Z,29.50
2019-04-20T11:04:38.813Z,27.80
2019-04-20T11:11:27.465Z,26.50
2019-04-20T11:18:11.347Z,25.50
2019-04-20T11:24:56.591Z,25.40
2019-04-20T11:31:46.473Z,24.60
2019-04-20T11:38:28.397Z,24.30
2019-04-20T11:45:14.989Z,24.00
2019-04-20T11:52:01.408Z,24.00
2019-04-20T11:58:47.023Z,24.00
2019-04-20T12:05:38.058Z,24.10
2019-04-20T12:12:32.194Z,24.20
2019-04-20T12:19:06.358Z,24.40
2019-04-20T12:25:52.346Z,24.30
2019-04-20T12:32:42.951Z,24.30
2019-04-20T12:39:24.876Z,24.10
2019-04-20T12:46:10.062Z,24.20
2019-04-20T12:52:56.652Z,24.30
2019-04-20T12:59:44.361Z,24.30
2019-04-20T13:06:29.923Z,24.30
2019-04-20T13:13:22.751Z,24.30
2019-04-20T13:20:10.065Z,24.40
2019-04-20T13:26:55.281Z,24.60
2019-04-20T13:33:41.303Z,24.90
2019-04-20T13:40:26.315Z,25.10
2019-04-20T13:47:12.944Z,24.90
2019-04-20T13:53:59.446Z,24.80
2019-04-20T14:00:53.498Z,24.90
2019-04-20T14:07:39.715Z,24.80
2019-04-20T14:14:26.292Z,24.50
2019-04-20T14:21:12.185Z,24.60
2019-04-20T14:27:57.338Z,24.60
2019-04-20T14:34:42.980Z,24.80
2019-04-20T14:41:28.472Z,24.90
2019-04-20T14:48:13.587Z,25.00
2019-04-20T14:54:59.536Z,24.60
2019-04-20T15:01:46.717Z,24.60
2019-04-20T15:08:32.548Z,24.90
2019-04-20T15:15:18.745Z,24.70
2019-04-20T15:22:05.613Z,24.60
2019-04-20T15:28:52.415Z,24.60
2019-04-20T15:35:37.880Z,24.40
2019-04-20T15:42:23.350Z,24.30
2019-04-20T15:49:08.480Z,24.30
2019-04-20T15:55:55.619Z,24.20
2019-04-20T16:02:43.319Z,24.30
2019-04-20T16:09:30.663Z,24.20
2019-04-20T16:16:16.202Z,24.30
2019-04-20T16:23:02.694Z,24.30
2019-04-20T16:29:47.732Z,24.20
2019-04-20T16:36:32.711Z,24.10
2019-04-20T16:43:27.558Z,24.00
2019-04-20T16:50:06.872Z,23.90
2019-04-20T16:56:52.979Z,23.70
2019-04-20T17:03:49.218Z,23.60
2019-04-20T17:10:41.113Z,23.40
2019-04-20T17:17:46.750Z,23.20
2019-04-20T17:24:31.331Z,23.00
2019-04-20T17:31:18.020Z,22.80
2019-04-20T17:38:04.620Z,22.50
2019-04-20T17:45:00.651Z,22.20
2019-04-20T17:51:58.188Z,22.00
2019-04-20T17:58:27.966Z,21.50
2019-04-20T18:05:34.247Z,21.00
2019-04-20T18:12:04.568Z,20.50
2019-04-20T18:18:58.179Z,20.30
2019-04-20T18:26:00.268Z,20.00
2019-04-20T18:32:33.725Z,19.60
2019-04-20T18:39:27.606Z,19.10
2019-04-20T18:46:24.930Z,18.70
2019-04-20T18:52:52.170Z,17.90
2019-04-20T18:59:43.782Z,17.40
2019-04-20T19:06:23.949Z,17.10
2019-04-20T19:13:20.240Z,17.00
2019-04-20T19:20:14.116Z,16.50
2019-04-20T19:27:03.549Z,16.30
2019-04-20T19:34:09.349Z,15.90
2019-04-20T19:40:45.667Z,15.60
2019-04-20T19:47:46.820Z,15.30
2019-04-20T19:54:30.255Z,15.10
2019-04-20T20:00:57.699Z,14.80
2019-04-20T20:07:45.718Z,14.50
2019-04-20T20:14:35.366Z,14.20
2019-04-20T20:21:23.756Z,14.00
2019-04-20T20:28:17.092Z,13.90
2019-04-20T20:34:56.080Z,13.60
2019-04-20T20:41:49.089Z,13.40
2019-04-20T20:48:35.661Z,13.20
2019-04-20T20:55:24.648Z,12.90
2019-04-20T21:02:06.739Z,12.70
2019-04-20T21:08:47.338Z,12.30
2019-04-20T21:15:30.268Z,12.00
2019-04-20T21:22:33.621Z,11.80
2019-04-20T21:29:03.779Z,11.70
2019-04-20T21:35:51.745Z,11.50
2019-04-20T21:42:44.341Z,11.30
2019-04-20T21:49:37.644Z,11.10
2019-04-20T21:56:10.091Z,11.10
2019-04-20T22:03:01.743Z,10.90
2019-04-20T22:09:47.668Z,10.80
2019-04-20T22:16:35.303Z,10.70
2019-04-20T22:23:34.382Z,10.60
2019-04-20T22:30:02.179Z,10.40
2019-04-20T22:36:50.095Z,10.20
2019-04-20T22:43:38.232Z,10.10
2019-04-20T22:50:33.983Z,10.00
2019-04-20T22:57:19.501Z,9.80
2019-04-20T23:03:54.890Z,9.60
2019-04-20T23:10:44.793Z,9.50
2019-04-20T23:17:33.492Z,9.50
2019-04-20T23:24:15.308Z,9.40
2019-04-20T23:31:06.469Z,9.20
2019-04-20T23:37:46.603Z,9.10
2019-04-20T23:44:40.129Z,9.00
2019-04-20T23:51:49.107Z,8.90
2019-04-20T23:58:14.731Z,8.80
